AFL2344 UUEE-EDDC
Flight info
| Callsign | AFL2344 |
|---|---|
| Flight time | 2h 36m |
| Altitude | 36000 |
| Route | LIDRI3H LIDRI T781 REPNU N858 BENIM L29 LAFAT DCT BILDI DCT VABER L29 SUWGI L735 OLBIK M748 OSKAN OSKAN4A |
| Aircraft | A320/M-SDE3FGHIRWY/LB1 |
Departure
| Time | 2026-05-05 11:39 |
|---|---|
| Airport | Sheremetyevo International Airport (UUEE) |
Arrival
| Time | 2026-05-05 14:16 |
|---|---|
| Airport | Dresden Airport (EDDC) |
| Time | Latitude | Longitude | Altitude | Speed | Heading |
|---|---|---|---|---|---|
| 2026-05-05 11:20 | 55.97926 | 37.41201 | 639 ft | 0 kts | 255° |
| 2026-05-05 11:30 | 55.97927 | 37.41208 | 639 ft | 2 kts | 255° |
| 2026-05-05 11:30 | 55.97932 | 37.41240 | 643 ft | 3 kts | 252° |
| 2026-05-05 11:30 | 55.97939 | 37.41274 | 643 ft | 3 kts | 247° |
| 2026-05-05 11:30 | 55.97947 | 37.41306 | 640 ft | 3 kts | 237° |
| 2026-05-05 11:31 | 55.97959 | 37.41334 | 640 ft | 3 kts | 212° |
| 2026-05-05 11:31 | 55.97973 | 37.41344 | 642 ft | 1 kts | 166° |
| 2026-05-05 11:31 | 55.97978 | 37.41341 | 639 ft | 0 kts | 165° |
| 2026-05-05 11:32 | 55.97975 | 37.41342 | 641 ft | 3 kts | 165° |
| 2026-05-05 11:33 | 55.97927 | 37.41365 | 642 ft | 8 kts | 165° |
| 2026-05-05 11:33 | 55.97878 | 37.41389 | 639 ft | 8 kts | 165° |
| 2026-05-05 11:33 | 55.97823 | 37.41415 | 639 ft | 8 kts | 165° |
| 2026-05-05 11:33 | 55.97767 | 37.41441 | 639 ft | 9 kts | 165° |
| 2026-05-05 11:34 | 55.97713 | 37.41467 | 639 ft | 7 kts | 165° |
| 2026-05-05 11:34 | 55.97680 | 37.41511 | 639 ft | 5 kts | 112° |
| 2026-05-05 11:34 | 55.97665 | 37.41572 | 641 ft | 6 kts | 128° |
| 2026-05-05 11:34 | 55.97632 | 37.41605 | 640 ft | 5 kts | 152° |
| 2026-05-05 11:35 | 55.97611 | 37.41666 | 639 ft | 6 kts | 96° |
| 2026-05-05 11:35 | 55.97619 | 37.41748 | 645 ft | 7 kts | 74° |
| 2026-05-05 11:35 | 55.97634 | 37.41843 | 647 ft | 9 kts | 75° |
| 2026-05-05 11:35 | 55.97649 | 37.41946 | 646 ft | 8 kts | 75° |
| 2026-05-05 11:36 | 55.97665 | 37.42053 | 643 ft | 9 kts | 75° |
| 2026-05-05 11:36 | 55.97683 | 37.42177 | 642 ft | 11 kts | 75° |
| 2026-05-05 11:36 | 55.97702 | 37.42305 | 639 ft | 10 kts | 75° |
| 2026-05-05 11:36 | 55.97719 | 37.42413 | 648 ft | 8 kts | 75° |
| 2026-05-05 11:37 | 55.97736 | 37.42529 | 642 ft | 10 kts | 75° |
| 2026-05-05 11:37 | 55.97752 | 37.42638 | 640 ft | 8 kts | 75° |
| 2026-05-05 11:37 | 55.97762 | 37.42729 | 648 ft | 7 kts | 91° |
| 2026-05-05 11:37 | 55.97741 | 37.42786 | 643 ft | 5 kts | 146° |
| 2026-05-05 11:38 | 55.97708 | 37.42807 | 642 ft | 4 kts | 163° |
| 2026-05-05 11:38 | 55.97675 | 37.42823 | 638 ft | 7 kts | 165° |
| 2026-05-05 11:38 | 55.97625 | 37.42823 | 643 ft | 10 kts | 198° |
| 2026-05-05 11:38 | 55.97589 | 37.42732 | 639 ft | 9 kts | 253° |
| 2026-05-05 11:39 | 55.97549 | 37.42466 | 639 ft | 52 kts | 255° |
| 2026-05-05 11:39 | 55.97398 | 37.41450 | 646 ft | 113 kts | 255° |
| 2026-05-05 11:39 | 55.97151 | 37.39798 | 647 ft | 159 kts | 255° |
| 2026-05-05 11:39 | 55.96835 | 37.37939 | 1318 ft | 152 kts | 253° |
| 2026-05-05 11:40 | 55.96536 | 37.36142 | 1987 ft | 153 kts | 254° |
| 2026-05-05 11:40 | 55.96248 | 37.34279 | 2548 ft | 162 kts | 253° |
| 2026-05-05 11:40 | 55.95929 | 37.32199 | 2872 ft | 184 kts | 253° |
| 2026-05-05 11:40 | 55.95562 | 37.29839 | 3191 ft | 209 kts | 255° |
| 2026-05-05 11:41 | 55.95237 | 37.27170 | 3554 ft | 233 kts | 258° |
| 2026-05-05 11:41 | 55.94937 | 37.24241 | 4196 ft | 244 kts | 260° |
| 2026-05-05 11:41 | 55.94644 | 37.21211 | 5096 ft | 247 kts | 259° |
| 2026-05-05 11:41 | 55.94354 | 37.18179 | 6009 ft | 248 kts | 260° |
| 2026-05-05 11:42 | 55.94062 | 37.15138 | 6903 ft | 248 kts | 260° |
| 2026-05-05 11:42 | 55.93772 | 37.12128 | 7683 ft | 251 kts | 260° |
| 2026-05-05 11:42 | 55.93470 | 37.09043 | 8500 ft | 253 kts | 260° |
| 2026-05-05 11:42 | 55.93159 | 37.05935 | 9341 ft | 255 kts | 260° |
| 2026-05-05 11:43 | 55.92843 | 37.02802 | 10086 ft | 259 kts | 260° |
| 2026-05-05 11:43 | 55.92510 | 36.99499 | 10356 ft | 282 kts | 260° |
| 2026-05-05 11:43 | 55.92150 | 36.95914 | 10541 ft | 305 kts | 260° |
| 2026-05-05 11:43 | 55.91765 | 36.92101 | 10725 ft | 325 kts | 260° |
| 2026-05-05 11:44 | 55.91356 | 36.88084 | 11222 ft | 333 kts | 260° |
| 2026-05-05 11:44 | 55.90935 | 36.83976 | 11857 ft | 338 kts | 260° |
| 2026-05-05 11:44 | 55.90509 | 36.79825 | 12540 ft | 341 kts | 259° |
| 2026-05-05 11:44 | 55.90077 | 36.75638 | 13211 ft | 345 kts | 259° |
| 2026-05-05 11:45 | 55.89650 | 36.71458 | 13832 ft | 349 kts | 259° |
| 2026-05-05 11:45 | 55.89212 | 36.67175 | 14405 ft | 352 kts | 259° |
| 2026-05-05 11:45 | 55.88769 | 36.62865 | 14971 ft | 355 kts | 259° |
| 2026-05-05 11:45 | 55.88318 | 36.58512 | 15526 ft | 358 kts | 259° |
| 2026-05-05 11:46 | 55.87857 | 36.54114 | 16097 ft | 361 kts | 259° |
| 2026-05-05 11:46 | 55.87396 | 36.49744 | 16631 ft | 364 kts | 259° |
| 2026-05-05 11:46 | 55.86923 | 36.45281 | 17155 ft | 367 kts | 259° |
| 2026-05-05 11:46 | 55.86419 | 36.40802 | 17689 ft | 370 kts | 258° |
| 2026-05-05 11:47 | 55.85873 | 36.36299 | 18209 ft | 372 kts | 257° |
| 2026-05-05 11:47 | 55.85313 | 36.31838 | 18653 ft | 375 kts | 257° |
| 2026-05-05 11:47 | 55.84738 | 36.27291 | 19109 ft | 377 kts | 257° |
| 2026-05-05 11:47 | 55.84161 | 36.22716 | 19579 ft | 379 kts | 257° |
| 2026-05-05 11:48 | 55.83006 | 36.13492 | 20482 ft | 383 kts | 257° |
| 2026-05-05 11:48 | 55.82424 | 36.08846 | 20925 ft | 385 kts | 257° |
| 2026-05-05 11:48 | 55.81845 | 36.04234 | 21355 ft | 387 kts | 257° |
| 2026-05-05 11:49 | 55.81255 | 35.99528 | 21784 ft | 390 kts | 257° |
| 2026-05-05 11:49 | 55.80657 | 35.94794 | 22211 ft | 392 kts | 257° |
| 2026-05-05 11:49 | 55.80054 | 35.90050 | 22617 ft | 394 kts | 257° |
| 2026-05-05 11:49 | 55.79451 | 35.85326 | 23018 ft | 396 kts | 257° |
| 2026-05-05 11:50 | 55.78837 | 35.80535 | 23399 ft | 398 kts | 257° |
| 2026-05-05 11:50 | 55.78217 | 35.75729 | 23732 ft | 400 kts | 257° |
| 2026-05-05 11:50 | 55.77590 | 35.70888 | 24069 ft | 402 kts | 257° |
| 2026-05-05 11:50 | 55.76956 | 35.66028 | 24404 ft | 404 kts | 257° |
| 2026-05-05 11:51 | 55.76316 | 35.61160 | 24736 ft | 405 kts | 257° |
| 2026-05-05 11:51 | 55.75675 | 35.56264 | 25055 ft | 407 kts | 258° |
| 2026-05-05 11:51 | 55.75266 | 35.51275 | 25379 ft | 409 kts | 265° |
| 2026-05-05 11:51 | 55.75061 | 35.46298 | 25684 ft | 410 kts | 265° |
| 2026-05-05 11:52 | 55.74847 | 35.41218 | 25988 ft | 412 kts | 265° |
| 2026-05-05 11:52 | 55.74626 | 35.36130 | 26284 ft | 413 kts | 265° |
| 2026-05-05 11:52 | 55.74399 | 35.31025 | 26581 ft | 414 kts | 265° |
| 2026-05-05 11:52 | 55.74172 | 35.25975 | 26862 ft | 416 kts | 265° |
| 2026-05-05 11:53 | 55.73937 | 35.20831 | 27142 ft | 417 kts | 265° |
| 2026-05-05 11:53 | 55.73697 | 35.15684 | 27427 ft | 419 kts | 265° |
| 2026-05-05 11:53 | 55.73455 | 35.10502 | 27709 ft | 420 kts | 265° |
| 2026-05-05 11:53 | 55.73215 | 35.05331 | 28058 ft | 420 kts | 265° |
| 2026-05-05 11:54 | 55.72982 | 35.00227 | 28472 ft | 418 kts | 265° |
| 2026-05-05 11:54 | 55.72752 | 34.95071 | 28882 ft | 416 kts | 265° |
| 2026-05-05 11:54 | 55.72521 | 34.89943 | 29296 ft | 415 kts | 265° |
| 2026-05-05 11:54 | 55.72289 | 34.84907 | 29700 ft | 413 kts | 265° |
| 2026-05-05 11:55 | 55.72049 | 34.79815 | 30077 ft | 412 kts | 265° |
| 2026-05-05 11:55 | 55.71806 | 34.74746 | 30412 ft | 410 kts | 265° |
| 2026-05-05 11:55 | 55.71565 | 34.69765 | 30728 ft | 410 kts | 265° |
| 2026-05-05 11:55 | 55.71322 | 34.64718 | 31043 ft | 409 kts | 265° |
| 2026-05-05 11:56 | 55.70991 | 34.59709 | 31349 ft | 408 kts | 259° |
| 2026-05-05 11:56 | 55.70235 | 34.54832 | 31646 ft | 409 kts | 251° |
| 2026-05-05 11:56 | 55.69258 | 34.50096 | 31942 ft | 409 kts | 251° |
| 2026-05-05 11:56 | 55.68291 | 34.45408 | 32247 ft | 408 kts | 251° |
| 2026-05-05 11:57 | 55.67319 | 34.40687 | 32549 ft | 407 kts | 251° |
| 2026-05-05 11:57 | 55.66345 | 34.35968 | 32849 ft | 407 kts | 251° |
| 2026-05-05 11:57 | 55.65379 | 34.31298 | 33132 ft | 407 kts | 251° |
| 2026-05-05 11:57 | 55.64394 | 34.26571 | 33423 ft | 406 kts | 251° |
| 2026-05-05 11:58 | 55.63415 | 34.21877 | 33714 ft | 406 kts | 252° |
| 2026-05-05 11:58 | 55.62447 | 34.17233 | 33970 ft | 406 kts | 251° |
| 2026-05-05 11:58 | 55.61463 | 34.12525 | 34205 ft | 406 kts | 251° |
| 2026-05-05 11:58 | 55.60477 | 34.07817 | 34441 ft | 406 kts | 251° |
| 2026-05-05 11:59 | 55.59491 | 34.03126 | 34641 ft | 407 kts | 251° |
| 2026-05-05 11:59 | 55.58512 | 33.98493 | 34838 ft | 407 kts | 251° |
| 2026-05-05 11:59 | 55.57516 | 33.93782 | 35039 ft | 408 kts | 251° |
| 2026-05-05 11:59 | 55.56518 | 33.89070 | 35239 ft | 408 kts | 251° |
| 2026-05-05 12:00 | 55.55519 | 33.84356 | 35440 ft | 408 kts | 251° |
| 2026-05-05 12:00 | 55.54530 | 33.79696 | 35627 ft | 409 kts | 251° |
| 2026-05-05 12:00 | 55.53525 | 33.74997 | 35802 ft | 409 kts | 250° |
| 2026-05-05 12:00 | 55.52510 | 33.70269 | 35861 ft | 411 kts | 250° |
| 2026-05-05 12:01 | 55.50718 | 33.60738 | 35855 ft | 411 kts | 256° |
| 2026-05-05 12:01 | 55.49317 | 33.50924 | 35859 ft | 411 kts | 256° |
| 2026-05-05 12:02 | 55.47900 | 33.41191 | 35861 ft | 411 kts | 256° |
| 2026-05-05 12:02 | 55.46470 | 33.31405 | 35859 ft | 411 kts | 256° |
| 2026-05-05 12:03 | 55.45025 | 33.21611 | 35857 ft | 411 kts | 256° |
| 2026-05-05 12:03 | 55.43581 | 33.11900 | 35857 ft | 411 kts | 256° |
| 2026-05-05 12:04 | 55.42127 | 33.02155 | 35858 ft | 411 kts | 256° |
| 2026-05-05 12:04 | 55.40667 | 32.92393 | 35859 ft | 411 kts | 256° |
| 2026-05-05 12:05 | 55.39208 | 32.82712 | 35854 ft | 411 kts | 256° |
| 2026-05-05 12:05 | 55.37727 | 32.72971 | 35854 ft | 411 kts | 256° |
| 2026-05-05 12:06 | 55.36249 | 32.63294 | 35857 ft | 411 kts | 256° |
| 2026-05-05 12:06 | 55.34751 | 32.53561 | 35853 ft | 411 kts | 256° |
| 2026-05-05 12:07 | 55.33257 | 32.43896 | 35862 ft | 411 kts | 256° |
| 2026-05-05 12:07 | 55.31751 | 32.34187 | 35861 ft | 411 kts | 255° |
| 2026-05-05 12:08 | 55.30492 | 32.26133 | 35862 ft | 411 kts | 255° |
| 2026-05-05 12:08 | 55.28721 | 32.14846 | 35864 ft | 411 kts | 255° |
| 2026-05-05 12:09 | 55.27448 | 32.06782 | 35864 ft | 411 kts | 255° |
| 2026-05-05 12:09 | 55.25901 | 31.97085 | 35868 ft | 412 kts | 255° |
| 2026-05-05 12:10 | 55.24355 | 31.87469 | 35865 ft | 411 kts | 255° |
| 2026-05-05 12:10 | 55.22804 | 31.77811 | 35867 ft | 411 kts | 255° |
| 2026-05-05 12:11 | 55.21258 | 31.68216 | 35867 ft | 411 kts | 255° |
| 2026-05-05 12:11 | 55.19688 | 31.58536 | 35867 ft | 412 kts | 255° |
| 2026-05-05 12:12 | 55.18116 | 31.48952 | 35870 ft | 412 kts | 255° |
| 2026-05-05 12:12 | 55.16533 | 31.39301 | 35874 ft | 412 kts | 255° |
| 2026-05-05 12:13 | 55.14950 | 31.29724 | 35872 ft | 412 kts | 255° |
| 2026-05-05 12:13 | 55.13350 | 31.20095 | 35872 ft | 411 kts | 255° |
| 2026-05-05 12:14 | 55.11742 | 31.10497 | 35872 ft | 411 kts | 255° |
| 2026-05-05 12:14 | 55.10246 | 31.00906 | 35871 ft | 410 kts | 261° |
| 2026-05-05 12:15 | 55.10173 | 30.90962 | 35870 ft | 410 kts | 274° |
| 2026-05-05 12:15 | 55.10672 | 30.81099 | 35868 ft | 410 kts | 274° |
| 2026-05-05 12:16 | 55.11150 | 30.71154 | 35864 ft | 410 kts | 274° |
| 2026-05-05 12:16 | 55.11619 | 30.61205 | 35865 ft | 410 kts | 274° |
| 2026-05-05 12:17 | 55.12086 | 30.51332 | 35864 ft | 410 kts | 274° |
| 2026-05-05 12:17 | 55.12548 | 30.41389 | 35869 ft | 410 kts | 274° |
| 2026-05-05 12:18 | 55.12942 | 30.31491 | 35870 ft | 410 kts | 272° |
| 2026-05-05 12:18 | 55.13104 | 30.21508 | 35873 ft | 409 kts | 270° |
| 2026-05-05 12:19 | 55.13187 | 30.11556 | 35873 ft | 409 kts | 270° |
| 2026-05-05 12:19 | 55.13294 | 30.01697 | 35873 ft | 408 kts | 271° |
| 2026-05-05 12:20 | 55.13430 | 29.91742 | 35868 ft | 408 kts | 271° |
| 2026-05-05 12:20 | 55.13562 | 29.81867 | 35869 ft | 408 kts | 270° |
| 2026-05-05 12:21 | 55.13684 | 29.71938 | 35866 ft | 408 kts | 270° |
| 2026-05-05 12:21 | 55.13793 | 29.62029 | 35866 ft | 407 kts | 270° |
| 2026-05-05 12:22 | 55.13886 | 29.52168 | 35873 ft | 407 kts | 270° |
| 2026-05-05 12:22 | 55.13969 | 29.42247 | 35870 ft | 407 kts | 270° |
| 2026-05-05 12:23 | 55.14053 | 29.32383 | 35873 ft | 407 kts | 270° |
| 2026-05-05 12:23 | 55.14135 | 29.22464 | 35874 ft | 407 kts | 270° |
| 2026-05-05 12:24 | 55.14207 | 29.12622 | 35874 ft | 407 kts | 270° |
| 2026-05-05 12:24 | 55.14287 | 29.02694 | 35873 ft | 407 kts | 270° |
| 2026-05-05 12:25 | 55.14367 | 28.92861 | 35872 ft | 406 kts | 270° |
| 2026-05-05 12:25 | 55.14434 | 28.83003 | 35869 ft | 406 kts | 270° |
| 2026-05-05 12:26 | 55.14485 | 28.73098 | 35871 ft | 406 kts | 270° |
| 2026-05-05 12:26 | 55.14527 | 28.63190 | 35869 ft | 406 kts | 270° |
| 2026-05-05 12:27 | 55.14566 | 28.53347 | 35870 ft | 406 kts | 269° |
| 2026-05-05 12:27 | 55.14596 | 28.43497 | 35871 ft | 406 kts | 269° |
| 2026-05-05 12:28 | 55.14619 | 28.33593 | 35872 ft | 406 kts | 269° |
| 2026-05-05 12:28 | 55.14615 | 28.23758 | 35874 ft | 406 kts | 266° |
| 2026-05-05 12:29 | 55.13695 | 28.14017 | 35875 ft | 406 kts | 258° |
| 2026-05-05 12:29 | 55.12545 | 28.04347 | 35865 ft | 406 kts | 258° |
| 2026-05-05 12:30 | 55.11409 | 27.94750 | 35864 ft | 406 kts | 258° |
| 2026-05-05 12:30 | 55.10258 | 27.85077 | 35864 ft | 406 kts | 258° |
| 2026-05-05 12:31 | 55.09092 | 27.75407 | 35866 ft | 406 kts | 258° |
| 2026-05-05 12:31 | 55.07929 | 27.65799 | 35870 ft | 407 kts | 258° |
| 2026-05-05 12:32 | 55.06748 | 27.56126 | 35868 ft | 407 kts | 258° |
| 2026-05-05 12:32 | 55.05566 | 27.46529 | 35867 ft | 406 kts | 258° |
| 2026-05-05 12:33 | 55.04365 | 27.36868 | 35869 ft | 406 kts | 258° |
| 2026-05-05 12:33 | 55.03146 | 27.27277 | 35861 ft | 407 kts | 258° |
| 2026-05-05 12:34 | 55.01904 | 27.17635 | 35865 ft | 407 kts | 257° |
| 2026-05-05 12:34 | 55.00664 | 27.08044 | 35870 ft | 407 kts | 257° |
| 2026-05-05 12:35 | 54.99417 | 26.98389 | 35866 ft | 407 kts | 257° |
| 2026-05-05 12:35 | 54.98166 | 26.88766 | 35869 ft | 407 kts | 257° |
| 2026-05-05 12:36 | 54.96917 | 26.79190 | 35875 ft | 407 kts | 257° |
| 2026-05-05 12:36 | 54.95644 | 26.69551 | 35878 ft | 407 kts | 257° |
| 2026-05-05 12:37 | 54.94364 | 26.59924 | 35872 ft | 407 kts | 257° |
| 2026-05-05 12:37 | 54.93084 | 26.50322 | 35876 ft | 407 kts | 257° |
| 2026-05-05 12:38 | 54.91799 | 26.40794 | 35876 ft | 407 kts | 257° |
| 2026-05-05 12:38 | 54.90493 | 26.31196 | 35873 ft | 407 kts | 257° |
| 2026-05-05 12:39 | 54.89182 | 26.21622 | 35870 ft | 407 kts | 257° |
| 2026-05-05 12:39 | 54.87877 | 26.12078 | 35879 ft | 407 kts | 257° |
| 2026-05-05 12:40 | 54.86562 | 26.02498 | 35878 ft | 407 kts | 257° |
| 2026-05-05 12:40 | 54.85234 | 25.92941 | 35875 ft | 407 kts | 256° |
| 2026-05-05 12:41 | 54.83893 | 25.83428 | 35877 ft | 407 kts | 256° |
| 2026-05-05 12:41 | 54.82069 | 25.74197 | 35879 ft | 407 kts | 244° |
| 2026-05-05 12:42 | 54.79524 | 25.65384 | 35886 ft | 407 kts | 245° |
| 2026-05-05 12:42 | 54.76989 | 25.56619 | 35883 ft | 407 kts | 245° |
| 2026-05-05 12:43 | 54.74463 | 25.47908 | 35885 ft | 407 kts | 244° |
| 2026-05-05 12:43 | 54.71917 | 25.39156 | 35886 ft | 407 kts | 244° |
| 2026-05-05 12:44 | 54.69360 | 25.30388 | 35889 ft | 407 kts | 244° |
| 2026-05-05 12:44 | 54.66814 | 25.21686 | 35890 ft | 407 kts | 244° |
| 2026-05-05 12:45 | 54.64246 | 25.12951 | 35883 ft | 407 kts | 244° |
| 2026-05-05 12:45 | 54.61669 | 25.04243 | 35881 ft | 407 kts | 244° |
| 2026-05-05 12:46 | 54.59083 | 24.95544 | 35881 ft | 406 kts | 244° |
| 2026-05-05 12:46 | 54.56704 | 24.86777 | 35880 ft | 406 kts | 248° |
| 2026-05-05 12:47 | 54.54545 | 24.77768 | 35881 ft | 405 kts | 249° |
| 2026-05-05 12:47 | 54.52388 | 24.68776 | 35879 ft | 406 kts | 248° |
| 2026-05-05 12:48 | 54.50192 | 24.59898 | 35883 ft | 406 kts | 248° |
| 2026-05-05 12:48 | 54.47935 | 24.50965 | 35883 ft | 406 kts | 247° |
| 2026-05-05 12:49 | 54.45678 | 24.42068 | 35887 ft | 406 kts | 247° |
| 2026-05-05 12:49 | 54.43432 | 24.33224 | 35886 ft | 406 kts | 247° |
| 2026-05-05 12:50 | 54.41166 | 24.24318 | 35891 ft | 406 kts | 247° |
| 2026-05-05 12:50 | 54.38894 | 24.15435 | 35896 ft | 406 kts | 247° |
| 2026-05-05 12:51 | 54.36631 | 24.06598 | 35895 ft | 406 kts | 247° |
| 2026-05-05 12:51 | 54.34346 | 23.97724 | 35897 ft | 406 kts | 247° |
| 2026-05-05 12:52 | 54.32066 | 23.88914 | 35897 ft | 406 kts | 247° |
| 2026-05-05 12:52 | 54.29764 | 23.80045 | 35896 ft | 406 kts | 247° |
| 2026-05-05 12:53 | 54.27476 | 23.71275 | 35896 ft | 405 kts | 246° |
| 2026-05-05 12:53 | 54.25178 | 23.62462 | 35893 ft | 405 kts | 246° |
| 2026-05-05 12:54 | 54.22107 | 23.50746 | 35887 ft | 405 kts | 246° |
| 2026-05-05 12:55 | 54.19778 | 23.41948 | 35889 ft | 405 kts | 246° |
| 2026-05-05 12:55 | 54.17534 | 23.33184 | 35888 ft | 405 kts | 248° |
| 2026-05-05 12:56 | 54.15387 | 23.24277 | 35886 ft | 405 kts | 248° |
| 2026-05-05 12:56 | 54.13248 | 23.15384 | 35887 ft | 405 kts | 248° |
| 2026-05-05 12:57 | 54.11075 | 23.06504 | 35889 ft | 406 kts | 248° |
| 2026-05-05 12:57 | 54.08885 | 22.97679 | 35889 ft | 406 kts | 248° |
| 2026-05-05 12:58 | 54.06678 | 22.88804 | 35888 ft | 406 kts | 248° |
| 2026-05-05 12:58 | 54.04745 | 22.79826 | 35890 ft | 406 kts | 251° |
| 2026-05-05 12:59 | 54.02977 | 22.70679 | 35891 ft | 406 kts | 252° |
| 2026-05-05 12:59 | 54.01174 | 22.61555 | 35892 ft | 406 kts | 251° |
| 2026-05-05 13:00 | 53.98367 | 22.47988 | 35892 ft | 406 kts | 250° |
| 2026-05-05 13:01 | 53.94594 | 22.29940 | 35890 ft | 407 kts | 250° |
| 2026-05-05 13:01 | 53.92695 | 22.20861 | 35891 ft | 406 kts | 250° |
| 2026-05-05 13:02 | 53.90801 | 22.11835 | 35902 ft | 406 kts | 250° |
| 2026-05-05 13:02 | 53.88901 | 22.02851 | 35896 ft | 406 kts | 250° |
| 2026-05-05 13:03 | 53.86970 | 21.93794 | 35900 ft | 406 kts | 250° |
| 2026-05-05 13:03 | 53.85055 | 21.84827 | 35895 ft | 406 kts | 250° |
| 2026-05-05 13:04 | 53.83122 | 21.75805 | 35894 ft | 406 kts | 250° |
| 2026-05-05 13:04 | 53.81205 | 21.66858 | 35893 ft | 406 kts | 250° |
| 2026-05-05 13:05 | 53.79263 | 21.57864 | 35895 ft | 406 kts | 250° |
| 2026-05-05 13:05 | 53.77321 | 21.48930 | 35897 ft | 406 kts | 250° |
| 2026-05-05 13:06 | 53.75365 | 21.39945 | 35893 ft | 406 kts | 250° |
| 2026-05-05 13:06 | 53.73421 | 21.31062 | 35894 ft | 406 kts | 250° |
| 2026-05-05 13:07 | 53.71445 | 21.22103 | 35895 ft | 406 kts | 249° |
| 2026-05-05 13:07 | 53.69471 | 21.13159 | 35894 ft | 406 kts | 249° |
| 2026-05-05 13:08 | 53.67504 | 21.04273 | 35893 ft | 406 kts | 249° |
| 2026-05-05 13:08 | 53.65514 | 20.95344 | 35889 ft | 406 kts | 249° |
| 2026-05-05 13:09 | 53.63511 | 20.86416 | 35892 ft | 407 kts | 249° |
| 2026-05-05 13:09 | 53.61518 | 20.77539 | 35893 ft | 407 kts | 249° |
| 2026-05-05 13:10 | 53.59509 | 20.68602 | 35894 ft | 407 kts | 249° |
| 2026-05-05 13:10 | 53.57489 | 20.59684 | 35893 ft | 407 kts | 249° |
| 2026-05-05 13:11 | 53.55462 | 20.50819 | 35897 ft | 407 kts | 249° |
| 2026-05-05 13:11 | 53.53422 | 20.41904 | 35897 ft | 407 kts | 249° |
| 2026-05-05 13:12 | 53.51403 | 20.33056 | 35893 ft | 407 kts | 249° |
| 2026-05-05 13:12 | 53.49361 | 20.24169 | 35891 ft | 407 kts | 248° |
| 2026-05-05 13:13 | 53.47304 | 20.15277 | 35893 ft | 407 kts | 248° |
| 2026-05-05 13:13 | 53.45250 | 20.06429 | 35887 ft | 407 kts | 248° |
| 2026-05-05 13:14 | 53.43185 | 19.97557 | 35886 ft | 408 kts | 248° |
| 2026-05-05 13:14 | 53.41118 | 19.88742 | 35883 ft | 408 kts | 248° |
| 2026-05-05 13:15 | 53.39033 | 19.79874 | 35883 ft | 408 kts | 248° |
| 2026-05-05 13:15 | 53.36939 | 19.71000 | 35885 ft | 409 kts | 248° |
| 2026-05-05 13:16 | 53.34848 | 19.62178 | 35879 ft | 409 kts | 248° |
| 2026-05-05 13:16 | 53.32733 | 19.53294 | 35881 ft | 410 kts | 248° |
| 2026-05-05 13:17 | 53.30617 | 19.44435 | 35881 ft | 410 kts | 248° |
| 2026-05-05 13:17 | 53.28507 | 19.35624 | 35879 ft | 410 kts | 248° |
| 2026-05-05 13:18 | 53.26371 | 19.26762 | 35880 ft | 410 kts | 248° |
| 2026-05-05 13:18 | 53.24230 | 19.17909 | 35883 ft | 410 kts | 248° |
| 2026-05-05 13:19 | 53.22102 | 19.09128 | 35883 ft | 410 kts | 248° |
| 2026-05-05 13:19 | 53.19942 | 19.00266 | 35883 ft | 410 kts | 247° |
| 2026-05-05 13:20 | 53.17788 | 18.91497 | 35878 ft | 411 kts | 247° |
| 2026-05-05 13:20 | 53.15622 | 18.82659 | 35879 ft | 410 kts | 247° |
| 2026-05-05 13:21 | 53.13451 | 18.73822 | 35872 ft | 410 kts | 247° |
| 2026-05-05 13:21 | 53.11286 | 18.65087 | 35872 ft | 411 kts | 247° |
| 2026-05-05 13:22 | 53.09084 | 18.56271 | 35877 ft | 411 kts | 247° |
| 2026-05-05 13:22 | 53.06900 | 18.47531 | 35876 ft | 411 kts | 247° |
| 2026-05-05 13:23 | 53.04693 | 18.38726 | 35877 ft | 411 kts | 247° |
| 2026-05-05 13:23 | 53.02487 | 18.29948 | 35872 ft | 411 kts | 247° |
| 2026-05-05 13:24 | 53.00287 | 18.21227 | 35868 ft | 411 kts | 247° |
| 2026-05-05 13:24 | 52.98067 | 18.12480 | 35868 ft | 411 kts | 247° |
| 2026-05-05 13:25 | 52.95833 | 18.03723 | 35864 ft | 411 kts | 247° |
| 2026-05-05 13:25 | 52.93617 | 17.95050 | 35865 ft | 411 kts | 247° |
| 2026-05-05 13:26 | 52.91373 | 17.86322 | 35866 ft | 411 kts | 247° |
| 2026-05-05 13:26 | 52.89125 | 17.77605 | 35873 ft | 411 kts | 247° |
| 2026-05-05 13:27 | 52.86886 | 17.68939 | 35875 ft | 411 kts | 247° |
| 2026-05-05 13:27 | 52.84614 | 17.60202 | 35876 ft | 411 kts | 247° |
| 2026-05-05 13:28 | 52.82365 | 17.51575 | 35876 ft | 410 kts | 247° |
| 2026-05-05 13:28 | 52.80099 | 17.42901 | 35873 ft | 410 kts | 247° |
| 2026-05-05 13:29 | 52.77839 | 17.34284 | 35873 ft | 410 kts | 247° |
| 2026-05-05 13:29 | 52.75571 | 17.25652 | 35871 ft | 410 kts | 247° |
| 2026-05-05 13:30 | 52.73285 | 17.17001 | 35870 ft | 409 kts | 247° |
| 2026-05-05 13:30 | 52.70991 | 17.08388 | 35868 ft | 410 kts | 247° |
| 2026-05-05 13:31 | 52.68711 | 16.99823 | 35866 ft | 410 kts | 247° |
| 2026-05-05 13:31 | 52.66411 | 16.91196 | 35865 ft | 410 kts | 247° |
| 2026-05-05 13:32 | 52.64108 | 16.82642 | 35862 ft | 409 kts | 247° |
| 2026-05-05 13:32 | 52.61793 | 16.74081 | 35861 ft | 409 kts | 247° |
| 2026-05-05 13:33 | 52.59470 | 16.65491 | 35860 ft | 410 kts | 247° |
| 2026-05-05 13:33 | 52.57149 | 16.56927 | 35861 ft | 410 kts | 247° |
| 2026-05-05 13:34 | 52.54837 | 16.48414 | 35865 ft | 410 kts | 247° |
| 2026-05-05 13:34 | 52.52495 | 16.39856 | 35868 ft | 410 kts | 246° |
| 2026-05-05 13:35 | 52.50543 | 16.32769 | 35866 ft | 410 kts | 246° |
| 2026-05-05 13:35 | 52.47810 | 16.22851 | 35864 ft | 409 kts | 246° |
| 2026-05-05 13:36 | 52.45851 | 16.15775 | 35865 ft | 410 kts | 246° |
| 2026-05-05 13:36 | 52.43486 | 16.07257 | 35862 ft | 410 kts | 246° |
| 2026-05-05 13:37 | 52.41113 | 15.98741 | 35861 ft | 410 kts | 246° |
| 2026-05-05 13:37 | 52.38748 | 15.90276 | 35863 ft | 410 kts | 246° |
| 2026-05-05 13:38 | 52.36372 | 15.81792 | 35865 ft | 410 kts | 246° |
| 2026-05-05 13:38 | 52.33988 | 15.73336 | 35867 ft | 410 kts | 246° |
| 2026-05-05 13:39 | 52.31593 | 15.64859 | 35867 ft | 410 kts | 246° |
| 2026-05-05 13:39 | 52.29193 | 15.56376 | 35868 ft | 410 kts | 246° |
| 2026-05-05 13:40 | 52.26806 | 15.47990 | 35865 ft | 410 kts | 246° |
| 2026-05-05 13:40 | 52.24391 | 15.39540 | 35864 ft | 410 kts | 246° |
| 2026-05-05 13:41 | 52.21988 | 15.31143 | 35865 ft | 409 kts | 246° |
| 2026-05-05 13:41 | 52.19567 | 15.22721 | 35865 ft | 409 kts | 245° |
| 2026-05-05 13:42 | 52.17137 | 15.14307 | 35866 ft | 410 kts | 245° |
| 2026-05-05 13:42 | 52.14712 | 15.05961 | 35870 ft | 410 kts | 245° |
| 2026-05-05 13:43 | 52.12267 | 14.97558 | 35871 ft | 409 kts | 245° |
| 2026-05-05 13:43 | 52.09826 | 14.89186 | 35867 ft | 409 kts | 245° |
| 2026-05-05 13:44 | 52.07378 | 14.80827 | 35868 ft | 409 kts | 245° |
| 2026-05-05 13:44 | 52.04956 | 14.72525 | 35868 ft | 408 kts | 246° |
| 2026-05-05 13:45 | 52.02643 | 14.64082 | 35865 ft | 408 kts | 247° |
| 2026-05-05 13:45 | 52.00395 | 14.55677 | 35858 ft | 407 kts | 247° |
| 2026-05-05 13:46 | 51.98110 | 14.47256 | 35848 ft | 407 kts | 246° |
| 2026-05-05 13:46 | 51.95798 | 14.38863 | 35682 ft | 407 kts | 246° |
| 2026-05-05 13:47 | 51.94641 | 14.34678 | 35209 ft | 407 kts | 246° |
| 2026-05-05 13:47 | 51.93491 | 14.30519 | 34471 ft | 408 kts | 246° |
| 2026-05-05 13:47 | 51.92324 | 14.26312 | 33678 ft | 409 kts | 246° |
| 2026-05-05 13:47 | 51.91146 | 14.22077 | 32798 ft | 411 kts | 246° |
| 2026-05-05 13:48 | 51.89971 | 14.17859 | 31955 ft | 412 kts | 246° |
| 2026-05-05 13:48 | 51.88797 | 14.13646 | 30992 ft | 416 kts | 245° |
| 2026-05-05 13:48 | 51.87597 | 14.09352 | 30010 ft | 420 kts | 245° |
| 2026-05-05 13:48 | 51.86397 | 14.05061 | 28878 ft | 424 kts | 245° |
| 2026-05-05 13:49 | 51.85173 | 14.00697 | 27768 ft | 427 kts | 245° |
| 2026-05-05 13:49 | 51.83938 | 13.96302 | 26617 ft | 431 kts | 245° |
| 2026-05-05 13:49 | 51.82686 | 13.91858 | 25514 ft | 435 kts | 245° |
| 2026-05-05 13:49 | 51.81436 | 13.87423 | 24644 ft | 433 kts | 245° |
| 2026-05-05 13:50 | 51.80190 | 13.83006 | 23783 ft | 431 kts | 244° |
| 2026-05-05 13:50 | 51.78946 | 13.78594 | 22849 ft | 429 kts | 244° |
| 2026-05-05 13:50 | 51.77728 | 13.74282 | 22058 ft | 425 kts | 245° |
| 2026-05-05 13:50 | 51.76498 | 13.69941 | 21281 ft | 422 kts | 245° |
| 2026-05-05 13:51 | 51.75281 | 13.65650 | 20521 ft | 418 kts | 245° |
| 2026-05-05 13:51 | 51.74070 | 13.61387 | 19769 ft | 415 kts | 245° |
| 2026-05-05 13:51 | 51.72863 | 13.57163 | 19211 ft | 408 kts | 245° |
| 2026-05-05 13:51 | 51.71692 | 13.53069 | 18564 ft | 405 kts | 245° |
| 2026-05-05 13:52 | 51.70334 | 13.49108 | 17881 ft | 402 kts | 233° |
| 2026-05-05 13:52 | 51.68354 | 13.45977 | 17229 ft | 398 kts | 217° |
| 2026-05-05 13:52 | 51.65890 | 13.43990 | 16625 ft | 397 kts | 199° |
| 2026-05-05 13:52 | 51.63177 | 13.43304 | 16012 ft | 397 kts | 182° |
| 2026-05-05 13:53 | 51.60442 | 13.43992 | 15375 ft | 401 kts | 165° |
| 2026-05-05 13:53 | 51.57950 | 13.46015 | 14724 ft | 405 kts | 147° |
| 2026-05-05 13:53 | 51.55802 | 13.48950 | 14065 ft | 405 kts | 141° |
| 2026-05-05 13:53 | 51.53688 | 13.51966 | 13321 ft | 405 kts | 141° |
| 2026-05-05 13:54 | 51.51588 | 13.54966 | 12563 ft | 403 kts | 141° |
| 2026-05-05 13:54 | 51.49525 | 13.57910 | 11814 ft | 400 kts | 141° |
| 2026-05-05 13:54 | 51.47582 | 13.61119 | 11061 ft | 402 kts | 130° |
| 2026-05-05 13:54 | 51.46106 | 13.64888 | 10828 ft | 393 kts | 118° |
| 2026-05-05 13:55 | 51.45155 | 13.68898 | 10694 ft | 380 kts | 107° |
| 2026-05-05 13:55 | 51.44526 | 13.72956 | 10564 ft | 363 kts | 106° |
| 2026-05-05 13:55 | 51.43937 | 13.76781 | 10453 ft | 349 kts | 106° |
| 2026-05-05 13:55 | 51.43363 | 13.80470 | 10326 ft | 335 kts | 106° |
| 2026-05-05 13:56 | 51.42803 | 13.84047 | 10206 ft | 324 kts | 107° |
| 2026-05-05 13:56 | 51.42262 | 13.87485 | 10082 ft | 313 kts | 107° |
| 2026-05-05 13:56 | 51.41742 | 13.90779 | 9883 ft | 305 kts | 107° |
| 2026-05-05 13:56 | 51.41220 | 13.94067 | 9543 ft | 303 kts | 107° |
| 2026-05-05 13:57 | 51.40702 | 13.97335 | 9183 ft | 301 kts | 107° |
| 2026-05-05 13:57 | 51.40089 | 14.00522 | 8822 ft | 296 kts | 119° |
| 2026-05-05 13:57 | 51.38896 | 14.03072 | 8496 ft | 288 kts | 142° |
| 2026-05-05 13:57 | 51.37194 | 14.04672 | 8057 ft | 283 kts | 163° |
| 2026-05-05 13:58 | 51.35224 | 14.05087 | 7288 ft | 292 kts | 187° |
| 2026-05-05 13:58 | 51.33266 | 14.04138 | 6529 ft | 300 kts | 210° |
| 2026-05-05 13:58 | 51.31592 | 14.02053 | 5714 ft | 310 kts | 221° |
| 2026-05-05 13:58 | 51.29946 | 13.99731 | 4874 ft | 320 kts | 221° |
| 2026-05-05 13:59 | 51.26539 | 13.94956 | 3562 ft | 326 kts | 221° |
| 2026-05-05 13:59 | 51.24873 | 13.92619 | 3408 ft | 312 kts | 221° |
| 2026-05-05 14:00 | 51.21680 | 13.88187 | 2660 ft | 292 kts | 221° |
| 2026-05-05 14:00 | 51.20662 | 13.86781 | 2411 ft | 281 kts | 221° |
| 2026-05-05 14:00 | 51.18780 | 13.84178 | 1937 ft | 261 kts | 221° |
| 2026-05-05 14:00 | 51.17443 | 13.82332 | 1594 ft | 248 kts | 220° |
| 2026-05-05 14:01 | 51.16170 | 13.80575 | 1268 ft | 236 kts | 223° |
| 2026-05-05 14:01 | 51.14943 | 13.78884 | 947 ft | 225 kts | 223° |
| 2026-05-05 14:01 | 51.13745 | 13.77212 | 1359 ft | 238 kts | 223° |
| 2026-05-05 14:01 | 51.12534 | 13.75487 | 2162 ft | 237 kts | 223° |
| 2026-05-05 14:02 | 51.11321 | 13.73717 | 2884 ft | 237 kts | 223° |
| 2026-05-05 14:02 | 51.10105 | 13.71930 | 3159 ft | 236 kts | 223° |
| 2026-05-05 14:02 | 51.08900 | 13.70160 | 3457 ft | 236 kts | 223° |
| 2026-05-05 14:02 | 51.07697 | 13.68379 | 3754 ft | 236 kts | 223° |
| 2026-05-05 14:03 | 51.06505 | 13.66611 | 4051 ft | 235 kts | 223° |
| 2026-05-05 14:03 | 51.05305 | 13.64826 | 4350 ft | 235 kts | 222° |
| 2026-05-05 14:03 | 51.04074 | 13.63121 | 4657 ft | 235 kts | 220° |
| 2026-05-05 14:03 | 51.02834 | 13.61439 | 4912 ft | 236 kts | 220° |
| 2026-05-05 14:04 | 51.01598 | 13.59733 | 4993 ft | 235 kts | 221° |
| 2026-05-05 14:04 | 51.00429 | 13.57932 | 4998 ft | 234 kts | 235° |
| 2026-05-05 14:04 | 50.99877 | 13.55548 | 5001 ft | 233 kts | 268° |
| 2026-05-05 14:04 | 51.00219 | 13.53069 | 4996 ft | 232 kts | 300° |
| 2026-05-05 14:05 | 51.01154 | 13.50982 | 5002 ft | 233 kts | 310° |
| 2026-05-05 14:05 | 51.02208 | 13.49031 | 5002 ft | 233 kts | 312° |
| 2026-05-05 14:05 | 51.03380 | 13.47266 | 4994 ft | 232 kts | 332° |
| 2026-05-05 14:05 | 51.04911 | 13.46641 | 5000 ft | 229 kts | 5° |
| 2026-05-05 14:06 | 51.06411 | 13.47401 | 5006 ft | 229 kts | 32° |
| 2026-05-05 14:06 | 51.07644 | 13.48986 | 5001 ft | 229 kts | 45° |
| 2026-05-05 14:06 | 51.08759 | 13.50797 | 5000 ft | 229 kts | 47° |
| 2026-05-05 14:06 | 51.09855 | 13.52641 | 5003 ft | 229 kts | 47° |
| 2026-05-05 14:07 | 51.10947 | 13.54489 | 5007 ft | 229 kts | 47° |
| 2026-05-05 14:07 | 51.12036 | 13.56340 | 5003 ft | 229 kts | 47° |
| 2026-05-05 14:07 | 51.13125 | 13.58196 | 5005 ft | 230 kts | 47° |
| 2026-05-05 14:07 | 51.14210 | 13.60048 | 5007 ft | 230 kts | 47° |
| 2026-05-05 14:08 | 51.15307 | 13.61925 | 5005 ft | 230 kts | 47° |
| 2026-05-05 14:08 | 51.16395 | 13.63788 | 5005 ft | 230 kts | 47° |
| 2026-05-05 14:08 | 51.17484 | 13.65655 | 5007 ft | 230 kts | 47° |
| 2026-05-05 14:08 | 51.18544 | 13.67475 | 5003 ft | 221 kts | 47° |
| 2026-05-05 14:09 | 51.19560 | 13.69217 | 5004 ft | 209 kts | 47° |
| 2026-05-05 14:09 | 51.20502 | 13.70836 | 5019 ft | 190 kts | 47° |
| 2026-05-05 14:09 | 51.21368 | 13.72327 | 4947 ft | 177 kts | 47° |
| 2026-05-05 14:09 | 51.22188 | 13.73736 | 4741 ft | 170 kts | 47° |
| 2026-05-05 14:10 | 51.22979 | 13.75095 | 4441 ft | 164 kts | 47° |
| 2026-05-05 14:10 | 51.23744 | 13.76409 | 4131 ft | 160 kts | 47° |
| 2026-05-05 14:10 | 51.24488 | 13.77695 | 3830 ft | 156 kts | 47° |
| 2026-05-05 14:10 | 51.25216 | 13.78955 | 3533 ft | 154 kts | 47° |
| 2026-05-05 14:11 | 51.25933 | 13.80198 | 3229 ft | 152 kts | 47° |
| 2026-05-05 14:11 | 51.26621 | 13.81456 | 3032 ft | 145 kts | 56° |
| 2026-05-05 14:11 | 51.26908 | 13.82940 | 2999 ft | 143 kts | 90° |
| 2026-05-05 14:11 | 51.26603 | 13.84455 | 3025 ft | 145 kts | 114° |
| 2026-05-05 14:12 | 51.26159 | 13.85895 | 3005 ft | 143 kts | 114° |
| 2026-05-05 14:12 | 51.25720 | 13.87331 | 3010 ft | 145 kts | 112° |
| 2026-05-05 14:12 | 51.25280 | 13.88779 | 2998 ft | 146 kts | 112° |
| 2026-05-05 14:12 | 51.24722 | 13.90124 | 2975 ft | 149 kts | 140° |
| 2026-05-05 14:13 | 51.23734 | 13.90566 | 2968 ft | 155 kts | 187° |
| 2026-05-05 14:13 | 51.22818 | 13.89732 | 2913 ft | 155 kts | 228° |
| 2026-05-05 14:13 | 51.22019 | 13.88552 | 2746 ft | 157 kts | 219° |
| 2026-05-05 14:13 | 51.21180 | 13.87451 | 2538 ft | 157 kts | 220° |
| 2026-05-05 14:14 | 51.20353 | 13.86334 | 2339 ft | 155 kts | 221° |
| 2026-05-05 14:14 | 51.19539 | 13.85220 | 2136 ft | 155 kts | 221° |
| 2026-05-05 14:14 | 51.18724 | 13.84098 | 1918 ft | 154 kts | 220° |
| 2026-05-05 14:14 | 51.17916 | 13.82983 | 1740 ft | 155 kts | 221° |
| 2026-05-05 14:15 | 51.17144 | 13.81919 | 1515 ft | 153 kts | 221° |
| 2026-05-05 14:15 | 51.16313 | 13.80774 | 1295 ft | 153 kts | 221° |
| 2026-05-05 14:15 | 51.15517 | 13.79677 | 1080 ft | 151 kts | 225° |
| 2026-05-05 14:15 | 51.14741 | 13.78603 | 852 ft | 151 kts | 224° |
| 2026-05-05 14:16 | 51.13962 | 13.77528 | 726 ft | 147 kts | 224° |
| 2026-05-05 14:16 | 51.13263 | 13.76567 | 714 ft | 105 kts | 221° |
| 2026-05-05 14:16 | 51.12938 | 13.76127 | 714 ft | 20 kts | 224° |
| 2026-05-05 14:16 | 51.12852 | 13.75999 | 714 ft | 25 kts | 224° |
| 2026-05-05 14:17 | 51.12718 | 13.75843 | 713 ft | 21 kts | 176° |
| 2026-05-05 14:17 | 51.12639 | 13.75946 | 713 ft | 13 kts | 131° |
| 2026-05-05 14:17 | 51.12583 | 13.76048 | 714 ft | 11 kts | 125° |
| 2026-05-05 14:17 | 51.12610 | 13.76142 | 713 ft | 9 kts | 46° |
| 2026-05-05 14:18 | 51.12662 | 13.76214 | 716 ft | 11 kts | 41° |
| 2026-05-05 14:18 | 51.12713 | 13.76286 | 714 ft | 9 kts | 42° |
| 2026-05-05 14:18 | 51.12758 | 13.76351 | 714 ft | 9 kts | 42° |
| 2026-05-05 14:18 | 51.12772 | 13.76437 | 713 ft | 8 kts | 120° |
| 2026-05-05 14:19 | 51.12738 | 13.76503 | 713 ft | 7 kts | 131° |
| 2026-05-05 14:19 | 51.12707 | 13.76558 | 713 ft | 6 kts | 131° |
| 2026-05-05 14:19 | 51.12676 | 13.76589 | 713 ft | 5 kts | 179° |
| 2026-05-05 14:19 | 51.12645 | 13.76566 | 713 ft | 4 kts | 215° |
| 2026-05-05 14:20 | 51.12625 | 13.76539 | 715 ft | 3 kts | 221° |